sensor_id;sensor_type;location;lat;lon;timestamp;pressure;altitude;pressure_sealevel;temperature;humidity
62952;BME280;52163;52.212;-1.002;2023-04-04T00:02:25;101890.90;;;0.78;79.98
62952;BME280;52163;52.212;-1.002;2023-04-04T00:04:50;101884.79;;;0.72;80.17
62952;BME280;52163;52.212;-1.002;2023-04-04T00:07:17;101886.33;;;0.66;80.41
62952;BME280;52163;52.212;-1.002;2023-04-04T00:09:42;101882.50;;;0.61;80.72
62952;BME280;52163;52.212;-1.002;2023-04-04T00:12:07;101886.66;;;0.57;80.84
62952;BME280;52163;52.212;-1.002;2023-04-04T00:14:33;101884.39;;;0.55;80.99
62952;BME280;52163;52.212;-1.002;2023-04-04T00:16:58;101884.74;;;0.55;81.06
62952;BME280;52163;52.212;-1.002;2023-04-04T00:19:24;101882.30;;;0.55;81.30
62952;BME280;52163;52.212;-1.002;2023-04-04T00:21:50;101878.84;;;0.55;81.52
62952;BME280;52163;52.212;-1.002;2023-04-04T00:24:15;101876.22;;;0.55;81.73
62952;BME280;52163;52.212;-1.002;2023-04-04T00:26:41;101876.73;;;0.56;81.68
62952;BME280;52163;52.212;-1.002;2023-04-04T00:29:06;101879.87;;;0.54;81.74
62952;BME280;52163;52.212;-1.002;2023-04-04T00:31:32;101879.52;;;0.54;81.91
62952;BME280;52163;52.212;-1.002;2023-04-04T00:33:57;101878.13;;;0.52;82.10
62952;BME280;52163;52.212;-1.002;2023-04-04T00:36:23;101871.86;;;0.49;82.04
62952;BME280;52163;52.212;-1.002;2023-04-04T00:38:48;101874.09;;;0.45;82.22
62952;BME280;52163;52.212;-1.002;2023-04-04T00:41:15;101868.86;;;0.42;82.20
62952;BME280;52163;52.212;-1.002;2023-04-04T00:43:40;101865.21;;;0.38;82.35
62952;BME280;52163;52.212;-1.002;2023-04-04T00:46:07;101865.54;;;0.33;82.51
62952;BME280;52163;52.212;-1.002;2023-04-04T00:48:35;101862.41;;;0.28;82.68
62952;BME280;52163;52.212;-1.002;2023-04-04T00:51:01;101862.91;;;0.25;82.80
62952;BME280;52163;52.212;-1.002;2023-04-04T00:53:26;101864.27;;;0.22;83.01
62952;BME280;52163;52.212;-1.002;2023-04-04T00:55:52;101869.48;;;0.23;83.36
62952;BME280;52163;52.212;-1.002;2023-04-04T00:58:17;101870.36;;;0.24;83.47
62952;BME280;52163;52.212;-1.002;2023-04-04T01:00:43;101869.00;;;0.26;83.76
62952;BME280;52163;52.212;-1.002;2023-04-04T01:03:09;101866.73;;;0.27;83.63
62952;BME280;52163;52.212;-1.002;2023-04-04T01:05:37;101860.66;;;0.27;83.78
62952;BME280;52163;52.212;-1.002;2023-04-04T01:08:02;101860.84;;;0.27;83.67
62952;BME280;52163;52.212;-1.002;2023-04-04T01:10:32;101864.48;;;0.26;83.75
62952;BME280;52163;52.212;-1.002;2023-04-04T01:12:57;101863.58;;;0.23;83.61
62952;BME280;52163;52.212;-1.002;2023-04-04T01:15:23;101863.39;;;0.19;83.77
62952;BME280;52163;52.212;-1.002;2023-04-04T01:17:50;101861.63;;;0.14;83.68
62952;BME280;52163;52.212;-1.002;2023-04-04T01:20:21;101858.49;;;0.10;83.91
62952;BME280;52163;52.212;-1.002;2023-04-04T01:22:49;101855.17;;;0.07;84.17
62952;BME280;52163;52.212;-1.002;2023-04-04T01:25:18;101853.59;;;0.03;84.06
62952;BME280;52163;52.212;-1.002;2023-04-04T01:27:45;101852.69;;;-0.02;84.12
62952;BME280;52163;52.212;-1.002;2023-04-04T01:30:13;101857.72;;;-0.05;84.18
62952;BME280;52163;52.212;-1.002;2023-04-04T01:35:37;101854.74;;;-0.08;84.63
62952;BME280;52163;52.212;-1.002;2023-04-04T01:40:54;101854.05;;;-0.08;85.05
62952;BME280;52163;52.212;-1.002;2023-04-04T01:43:20;101853.89;;;-0.06;85.35
62952;BME280;52163;52.212;-1.002;2023-04-04T01:45:46;101849.20;;;-0.05;85.23
62952;BME280;52163;52.212;-1.002;2023-04-04T01:48:13;101844.17;;;-0.06;85.21
62952;BME280;52163;52.212;-1.002;2023-04-04T01:50:40;101843.98;;;-0.08;85.10
62952;BME280;52163;52.212;-1.002;2023-04-04T01:53:06;101844.83;;;-0.11;85.22
62952;BME280;52163;52.212;-1.002;2023-04-04T01:55:31;101842.22;;;-0.15;85.13
62952;BME280;52163;52.212;-1.002;2023-04-04T01:57:57;101838.38;;;-0.19;85.20
62952;BME280;52163;52.212;-1.002;2023-04-04T02:00:23;101837.66;;;-0.22;85.32
62952;BME280;52163;52.212;-1.002;2023-04-04T02:02:48;101835.17;;;-0.26;85.42
62952;BME280;52163;52.212;-1.002;2023-04-04T02:05:13;101833.96;;;-0.29;85.60
62952;BME280;52163;52.212;-1.002;2023-04-04T02:07:39;101834.64;;;-0.32;85.59
62952;BME280;52163;52.212;-1.002;2023-04-04T02:10:05;101835.49;;;-0.34;85.61
62952;BME280;52163;52.212;-1.002;2023-04-04T02:12:30;101836.71;;;-0.35;85.75
62952;BME280;52163;52.212;-1.002;2023-04-04T02:14:55;101838.62;;;-0.34;85.86
62952;BME280;52163;52.212;-1.002;2023-04-04T02:17:21;101834.27;;;-0.34;85.90
62952;BME280;52163;52.212;-1.002;2023-04-04T02:19:46;101836.71;;;-0.33;86.10
62952;BME280;52163;52.212;-1.002;2023-04-04T02:22:11;101841.41;;;-0.31;86.14
62952;BME280;52163;52.212;-1.002;2023-04-04T02:24:37;101843.67;;;-0.32;86.12
62952;BME280;52163;52.212;-1.002;2023-04-04T02:27:02;101838.45;;;-0.33;86.26
62952;BME280;52163;52.212;-1.002;2023-04-04T02:29:28;101838.96;;;-0.34;86.40
62952;BME280;52163;52.212;-1.002;2023-04-04T02:31:54;101835.31;;;-0.35;86.49
62952;BME280;52163;52.212;-1.002;2023-04-04T02:34:20;101830.95;;;-0.38;86.33
62952;BME280;52163;52.212;-1.002;2023-04-04T02:36:45;101828.67;;;-0.42;86.25
62952;BME280;52163;52.212;-1.002;2023-04-04T02:39:11;101824.65;;;-0.46;86.44
62952;BME280;52163;52.212;-1.002;2023-04-04T02:41:36;101823.23;;;-0.50;86.56
62952;BME280;52163;52.212;-1.002;2023-04-04T02:44:02;101820.10;;;-0.53;86.64
62952;BME280;52163;52.212;-1.002;2023-04-04T02:46:27;101819.55;;;-0.55;86.69
62952;BME280;52163;52.212;-1.002;2023-04-04T02:48:52;101816.76;;;-0.58;86.83
62952;BME280;52163;52.212;-1.002;2023-04-04T02:51:18;101814.34;;;-0.59;86.97
62952;BME280;52163;52.212;-1.002;2023-04-04T02:53:43;101813.48;;;-0.57;87.09
62952;BME280;52163;52.212;-1.002;2023-04-04T02:56:09;101815.75;;;-0.53;87.53
62952;BME280;52163;52.212;-1.002;2023-04-04T02:58:34;101809.00;;;-0.50;87.25
62952;BME280;52163;52.212;-1.002;2023-04-04T03:00:59;101806.23;;;-0.49;87.16
62952;BME280;52163;52.212;-1.002;2023-04-04T03:03:25;101802.93;;;-0.49;86.99
62952;BME280;52163;52.212;-1.002;2023-04-04T03:05:51;101799.79;;;-0.51;86.66
62952;BME280;52163;52.212;-1.002;2023-04-04T03:08:17;101801.33;;;-0.55;86.56
62952;BME280;52163;52.212;-1.002;2023-04-04T03:10:43;101804.09;;;-0.60;86.66
62952;BME280;52163;52.212;-1.002;2023-04-04T03:13:09;101804.23;;;-0.63;86.66
62952;BME280;52163;52.212;-1.002;2023-04-04T03:15:34;101805.08;;;-0.67;86.54
62952;BME280;52163;52.212;-1.002;2023-04-04T03:18:01;101802.80;;;-0.72;86.64
62952;BME280;52163;52.212;-1.002;2023-04-04T03:20:27;101799.79;;;-0.77;86.81
62952;BME280;52163;52.212;-1.002;2023-04-04T03:22:52;101799.07;;;-0.81;87.03
62952;BME280;52163;52.212;-1.002;2023-04-04T03:25:18;101798.90;;;-0.81;87.47
62952;BME280;52163;52.212;-1.002;2023-04-04T03:27:43;101794.21;;;-0.81;87.40
62952;BME280;52163;52.212;-1.002;2023-04-04T03:30:09;101787.95;;;-0.81;87.45
62952;BME280;52163;52.212;-1.002;2023-04-04T03:32:36;101786.21;;;-0.81;87.59
62952;BME280;52163;52.212;-1.002;2023-04-04T03:35:02;101785.00;;;-0.81;87.63
62952;BME280;52163;52.212;-1.002;2023-04-04T03:37:29;101791.60;;;-0.82;87.67
62952;BME280;52163;52.212;-1.002;2023-04-04T03:39:54;101792.49;;;-0.78;88.19
62952;BME280;52163;52.212;-1.002;2023-04-04T03:42:20;101792.49;;;-0.77;88.12
62952;BME280;52163;52.212;-1.002;2023-04-04T03:44:46;101791.29;;;-0.77;87.84
62952;BME280;52163;52.212;-1.002;2023-04-04T03:47:13;101786.41;;;-0.80;87.72
62952;BME280;52163;52.212;-1.002;2023-04-04T03:49:38;101783.96;;;-0.82;87.94
62952;BME280;52163;52.212;-1.002;2023-04-04T03:52:04;101791.41;;;-0.85;87.95
62952;BME280;52163;52.212;-1.002;2023-04-04T03:54:29;101788.61;;;-0.88;87.81
62952;BME280;52163;52.212;-1.002;2023-04-04T03:56:55;101793.42;;;-0.93;87.83
62952;BME280;52163;52.212;-1.002;2023-04-04T03:59:22;101789.23;;;-0.97;87.91
62952;BME280;52163;52.212;-1.002;2023-04-04T04:01:47;101791.11;;;-1.01;88.04
62952;BME280;52163;52.212;-1.002;2023-04-04T04:04:13;101790.06;;;-1.02;88.25
62952;BME280;52163;52.212;-1.002;2023-04-04T04:06:38;101793.21;;;-0.99;88.65
62952;BME280;52163;52.212;-1.002;2023-04-04T04:09:04;101791.99;;;-0.98;88.52
62952;BME280;52163;52.212;-1.002;2023-04-04T04:11:29;101790.61;;;-0.99;88.53
62952;BME280;52163;52.212;-1.002;2023-04-04T04:13:55;101788.20;;;-0.97;88.53
62952;BME280;52163;52.212;-1.002;2023-04-04T04:16:20;101788.70;;;-0.97;88.60
62952;BME280;52163;52.212;-1.002;2023-04-04T04:18:47;101783.32;;;-0.99;88.42
62952;BME280;52163;52.212;-1.002;2023-04-04T04:21:13;101785.73;;;-1.01;88.25
62952;BME280;52163;52.212;-1.002;2023-04-04T04:23:38;101785.17;;;-1.06;88.22
62952;BME280;52163;52.212;-1.002;2023-04-04T04:26:04;101786.70;;;-1.11;88.21
62952;BME280;52163;52.212;-1.002;2023-04-04T04:28:30;101786.50;;;-1.14;88.30
62952;BME280;52163;52.212;-1.002;2023-04-04T04:31:03;101790.27;;;-1.19;88.26
62952;BME280;52163;52.212;-1.002;2023-04-04T04:33:28;101790.58;;;-1.23;88.38
62952;BME280;52163;52.212;-1.002;2023-04-04T04:36:01;101786.54;;;-1.28;88.41
62952;BME280;52163;52.212;-1.002;2023-04-04T04:38:27;101787.89;;;-1.32;88.59
62952;BME280;52163;52.212;-1.002;2023-04-04T04:40:53;101787.20;;;-1.33;88.64
62952;BME280;52163;52.212;-1.002;2023-04-04T04:43:19;101786.67;;;-1.33;89.01
62952;BME280;52163;52.212;-1.002;2023-04-04T04:45:44;101786.52;;;-1.31;89.04
62952;BME280;52163;52.212;-1.002;2023-04-04T04:48:10;101780.63;;;-1.30;88.98
62952;BME280;52163;52.212;-1.002;2023-04-04T04:50:37;101780.98;;;-1.29;89.20
62952;BME280;52163;52.212;-1.002;2023-04-04T04:53:03;101785.13;;;-1.31;89.13
62952;BME280;52163;52.212;-1.002;2023-04-04T04:55:28;101783.71;;;-1.34;88.90
62952;BME280;52163;52.212;-1.002;2023-04-04T04:57:53;101788.20;;;-1.38;88.77
62952;BME280;52163;52.212;-1.002;2023-04-04T05:00:19;101785.38;;;-1.42;88.75
62952;BME280;52163;52.212;-1.002;2023-04-04T05:02:45;101787.56;;;-1.47;88.95
62952;BME280;52163;52.212;-1.002;2023-04-04T05:05:10;101788.06;;;-1.51;89.07
62952;BME280;52163;52.212;-1.002;2023-04-04T05:07:36;101789.06;;;-1.54;89.09
62952;BME280;52163;52.212;-1.002;2023-04-04T05:10:01;101789.02;;;-1.59;89.32
62952;BME280;52163;52.212;-1.002;2023-04-04T05:12:27;101790.03;;;-1.62;89.56
62952;BME280;52163;52.212;-1.002;2023-04-04T05:14:52;101783.60;;;-1.63;89.61
62952;BME280;52163;52.212;-1.002;2023-04-04T05:17:18;101785.66;;;-1.66;89.52
62952;BME280;52163;52.212;-1.002;2023-04-04T05:19:43;101784.61;;;-1.67;89.70
62952;BME280;52163;52.212;-1.002;2023-04-04T05:22:09;101786.89;;;-1.65;90.16
62952;BME280;52163;52.212;-1.002;2023-04-04T05:24:34;101786.21;;;-1.63;90.29
62952;BME280;52163;52.212;-1.002;2023-04-04T05:27:00;101787.10;;;-1.61;90.28
62952;BME280;52163;52.212;-1.002;2023-04-04T05:29:25;101785.73;;;-1.60;90.29
62952;BME280;52163;52.212;-1.002;2023-04-04T05:31:51;101784.02;;;-1.57;90.47
62952;BME280;52163;52.212;-1.002;2023-04-04T05:34:16;101781.59;;;-1.57;90.43
62952;BME280;52163;52.212;-1.002;2023-04-04T05:36:42;101779.87;;;-1.55;90.59
62952;BME280;52163;52.212;-1.002;2023-04-04T05:39:07;101780.91;;;-1.56;90.37
62952;BME280;52163;52.212;-1.002;2023-04-04T05:41:32;101782.27;;;-1.57;90.31
62952;BME280;52163;52.212;-1.002;2023-04-04T05:43:58;101777.23;;;-1.58;90.33
62952;BME280;52163;52.212;-1.002;2023-04-04T05:46:23;101775.48;;;-1.61;90.15
62952;BME280;52163;52.212;-1.002;2023-04-04T05:48:50;101776.86;;;-1.62;90.37
62952;BME280;52163;52.212;-1.002;2023-04-04T05:51:16;101778.95;;;-1.62;90.51
62952;BME280;52163;52.212;-1.002;2023-04-04T05:53:42;101775.16;;;-1.59;90.64
62952;BME280;52163;52.212;-1.002;2023-04-04T05:56:10;101773.63;;;-1.55;90.74
62952;BME280;52163;52.212;-1.002;2023-04-04T05:58:36;101773.16;;;-1.49;91.07
62952;BME280;52163;52.212;-1.002;2023-04-04T06:01:08;101772.02;;;-1.42;90.87
62952;BME280;52163;52.212;-1.002;2023-04-04T06:03:34;101774.85;;;-1.36;90.95
62952;BME280;52163;52.212;-1.002;2023-04-04T06:06:01;101776.63;;;-1.33;90.77
62952;BME280;52163;52.212;-1.002;2023-04-04T06:08:30;101782.38;;;-1.29;90.71
62952;BME280;52163;52.212;-1.002;2023-04-04T06:10:56;101784.30;;;-1.25;90.73
62952;BME280;52163;52.212;-1.002;2023-04-04T06:13:21;101787.81;;;-1.21;90.65
62952;BME280;52163;52.212;-1.002;2023-04-04T06:15:47;101789.07;;;-1.19;90.75
62952;BME280;52163;52.212;-1.002;2023-04-04T06:18:12;101785.09;;;-1.17;90.74
62952;BME280;52163;52.212;-1.002;2023-04-04T06:20:38;101788.58;;;-1.14;90.52
62952;BME280;52163;52.212;-1.002;2023-04-04T06:23:03;101786.69;;;-1.12;90.50
62952;BME280;52163;52.212;-1.002;2023-04-04T06:25:30;101787.41;;;-1.08;90.31
62952;BME280;52163;52.212;-1.002;2023-04-04T06:27:55;101793.52;;;-1.03;90.38
62952;BME280;52163;52.212;-1.002;2023-04-04T06:30:21;101796.02;;;-0.96;90.55
62952;BME280;52163;52.212;-1.002;2023-04-04T06:32:46;101792.95;;;-0.88;90.84
62952;BME280;52163;52.212;-1.002;2023-04-04T06:35:12;101791.63;;;-0.80;90.80
62952;BME280;52163;52.212;-1.002;2023-04-04T06:37:38;101791.35;;;-0.70;91.15
62952;BME280;52163;52.212;-1.002;2023-04-04T06:40:04;101788.64;;;-0.59;91.57
62952;BME280;52163;52.212;-1.002;2023-04-04T06:42:29;101791.13;;;-0.48;91.64
62952;BME280;52163;52.212;-1.002;2023-04-04T06:44:54;101795.86;;;-0.41;91.41
62952;BME280;52163;52.212;-1.002;2023-04-04T06:47:20;101796.56;;;-0.40;91.15
62952;BME280;52163;52.212;-1.002;2023-04-04T06:49:46;101802.32;;;-0.36;91.39
62952;BME280;52163;52.212;-1.002;2023-04-04T06:52:11;101802.86;;;-0.31;91.45
62952;BME280;52163;52.212;-1.002;2023-04-04T06:54:37;101798.55;;;-0.25;91.47
62952;BME280;52163;52.212;-1.002;2023-04-04T06:57:03;101803.80;;;-0.18;91.63
62952;BME280;52163;52.212;-1.002;2023-04-04T06:59:28;101807.84;;;-0.10;91.64
62952;BME280;52163;52.212;-1.002;2023-04-04T07:01:56;101810.84;;;0.01;91.84
62952;BME280;52163;52.212;-1.002;2023-04-04T07:04:21;101811.40;;;0.11;91.48
62952;BME280;52163;52.212;-1.002;2023-04-04T07:06:46;101814.03;;;0.20;91.36
62952;BME280;52163;52.212;-1.002;2023-04-04T07:09:12;101807.46;;;0.28;91.21
62952;BME280;52163;52.212;-1.002;2023-04-04T07:11:37;101808.70;;;0.34;90.77
62952;BME280;52163;52.212;-1.002;2023-04-04T07:14:02;101802.61;;;0.36;90.49
62952;BME280;52163;52.212;-1.002;2023-04-04T07:16:31;101804.20;;;0.42;90.97
62952;BME280;52163;52.212;-1.002;2023-04-04T07:18:56;101804.20;;;0.49;91.10
62952;BME280;52163;52.212;-1.002;2023-04-04T07:21:21;101803.02;;;0.58;91.09
62952;BME280;52163;52.212;-1.002;2023-04-04T07:23:47;101802.67;;;0.63;90.82
62952;BME280;52163;52.212;-1.002;2023-04-04T07:26:12;101795.36;;;0.67;90.59
62952;BME280;52163;52.212;-1.002;2023-04-04T07:28:38;101795.02;;;0.71;91.02
62952;BME280;52163;52.212;-1.002;2023-04-04T07:31:03;101793.14;;;0.79;91.41
62952;BME280;52163;52.212;-1.002;2023-04-04T07:33:28;101795.39;;;0.90;91.56
62952;BME280;52163;52.212;-1.002;2023-04-04T07:35:54;101790.00;;;1.01;91.97
62952;BME280;52163;52.212;-1.002;2023-04-04T07:38:20;101792.25;;;1.17;92.62
62952;BME280;52163;52.212;-1.002;2023-04-04T07:40:48;101788.07;;;1.30;92.27
62952;BME280;52163;52.212;-1.002;2023-04-04T07:43:14;101788.40;;;1.42;91.99
62952;BME280;52163;52.212;-1.002;2023-04-04T07:45:39;101784.90;;;1.50;91.68
62952;BME280;52163;52.212;-1.002;2023-04-04T07:48:05;101783.83;;;1.58;91.71
62952;BME280;52163;52.212;-1.002;2023-04-04T07:50:31;101782.93;;;1.67;92.02
62952;BME280;52163;52.212;-1.002;2023-04-04T07:52:56;101781.86;;;1.78;92.10
62952;BME280;52163;52.212;-1.002;2023-04-04T07:55:23;101779.20;;;1.88;92.23
62952;BME280;52163;52.212;-1.002;2023-04-04T07:57:50;101777.42;;;1.99;92.17
62952;BME280;52163;52.212;-1.002;2023-04-04T08:00:17;101777.18;;;2.14;92.31
62952;BME280;52163;52.212;-1.002;2023-04-04T08:02:50;101780.05;;;2.30;92.16
62952;BME280;52163;52.212;-1.002;2023-04-04T08:05:16;101776.30;;;2.45;92.27
62952;BME280;52163;52.212;-1.002;2023-04-04T08:07:42;101776.19;;;2.61;92.44
62952;BME280;52163;52.212;-1.002;2023-04-04T08:10:08;101769.79;;;2.77;92.20
62952;BME280;52163;52.212;-1.002;2023-04-04T08:12:34;101764.27;;;2.92;91.80
62952;BME280;52163;52.212;-1.002;2023-04-04T08:14:59;101753.33;;;3.05;91.69
62952;BME280;52163;52.212;-1.002;2023-04-04T08:17:26;101747.98;;;3.15;91.55
62952;BME280;52163;52.212;-1.002;2023-04-04T08:19:52;101746.64;;;3.28;91.31
62952;BME280;52163;52.212;-1.002;2023-04-04T08:22:18;101743.38;;;3.40;91.14
62952;BME280;52163;52.212;-1.002;2023-04-04T08:24:43;101741.31;;;3.53;90.92
62952;BME280;52163;52.212;-1.002;2023-04-04T08:27:09;101741.51;;;3.68;90.74
62952;BME280;52163;52.212;-1.002;2023-04-04T08:29:35;101740.41;;;3.85;90.26
62952;BME280;52163;52.212;-1.002;2023-04-04T08:32:00;101739.84;;;4.01;89.52
62952;BME280;52163;52.212;-1.002;2023-04-04T08:34:25;101735.09;;;4.18;89.19
62952;BME280;52163;52.212;-1.002;2023-04-04T08:36:51;101729.41;;;4.35;89.05
62952;BME280;52163;52.212;-1.002;2023-04-04T08:39:17;101724.27;;;4.50;88.56
62952;BME280;52163;52.212;-1.002;2023-04-04T08:41:44;101724.73;;;4.67;87.81
62952;BME280;52163;52.212;-1.002;2023-04-04T08:44:15;101717.52;;;4.80;86.83
62952;BME280;52163;52.212;-1.002;2023-04-04T08:46:45;101716.39;;;4.94;86.02
62952;BME280;52163;52.212;-1.002;2023-04-04T08:49:13;101714.05;;;5.07;85.39
62952;BME280;52163;52.212;-1.002;2023-04-04T08:51:41;101716.62;;;5.20;84.43
62952;BME280;52163;52.212;-1.002;2023-04-04T08:54:10;101713.25;;;5.32;83.62
62952;BME280;52163;52.212;-1.002;2023-04-04T08:56:37;101708.08;;;5.45;83.17
62952;BME280;52163;52.212;-1.002;2023-04-04T08:59:02;101710.46;;;5.57;82.30
62952;BME280;52163;52.212;-1.002;2023-04-04T09:01:27;101713.58;;;5.69;81.88
62952;BME280;52163;52.212;-1.002;2023-04-04T09:03:57;101720.03;;;5.78;81.32
62952;BME280;52163;52.212;-1.002;2023-04-04T09:06:23;101723.13;;;5.90;80.61
62952;BME280;52163;52.212;-1.002;2023-04-04T09:08:49;101722.55;;;6.01;79.90
62952;BME280;52163;52.212;-1.002;2023-04-04T09:11:19;101724.86;;;6.08;79.15
62952;BME280;52163;52.212;-1.002;2023-04-04T09:13:46;101731.54;;;6.16;78.70
62952;BME280;52163;52.212;-1.002;2023-04-04T09:16:13;101728.96;;;6.22;78.13
62952;BME280;52163;52.212;-1.002;2023-04-04T09:18:38;101726.14;;;6.30;77.52
62952;BME280;52163;52.212;-1.002;2023-04-04T09:21:12;101721.87;;;6.39;77.12
62952;BME280;52163;52.212;-1.002;2023-04-04T09:23:37;101722.56;;;6.47;76.74
62952;BME280;52163;52.212;-1.002;2023-04-04T09:26:03;101726.63;;;6.54;75.77
62952;BME280;52163;52.212;-1.002;2023-04-04T09:28:30;101725.10;;;6.59;75.03
62952;BME280;52163;52.212;-1.002;2023-04-04T09:30:59;101723.38;;;6.65;75.27
62952;BME280;52163;52.212;-1.002;2023-04-04T09:33:26;101729.71;;;6.72;74.96
62952;BME280;52163;52.212;-1.002;2023-04-04T09:36:01;101731.04;;;6.75;74.81
62952;BME280;52163;52.212;-1.002;2023-04-04T09:38:28;101735.16;;;6.78;74.56
62952;BME280;52163;52.212;-1.002;2023-04-04T09:40:55;101737.33;;;6.83;73.79
62952;BME280;52163;52.212;-1.002;2023-04-04T09:43:22;101732.09;;;6.88;72.40
62952;BME280;52163;52.212;-1.002;2023-04-04T09:45:49;101729.77;;;6.98;71.89
62952;BME280;52163;52.212;-1.002;2023-04-04T09:48:26;101731.48;;;7.06;72.13
62952;BME280;52163;52.212;-1.002;2023-04-04T09:50:53;101728.66;;;7.13;71.99
62952;BME280;52163;52.212;-1.002;2023-04-04T09:53:18;101724.87;;;7.17;71.27
62952;BME280;52163;52.212;-1.002;2023-04-04T09:55:53;101724.65;;;7.25;71.94
62952;BME280;52163;52.212;-1.002;2023-04-04T10:00:51;101730.27;;;7.38;71.55
62952;BME280;52163;52.212;-1.002;2023-04-04T10:03:20;101730.11;;;7.44;71.15
62952;BME280;52163;52.212;-1.002;2023-04-04T10:05:52;101729.08;;;7.50;70.32
62952;BME280;52163;52.212;-1.002;2023-04-04T10:08:22;101734.17;;;7.56;69.91
62952;BME280;52163;52.212;-1.002;2023-04-04T10:10:51;101736.98;;;7.62;69.72
62952;BME280;52163;52.212;-1.002;2023-04-04T10:13:25;101737.35;;;7.68;68.64
62952;BME280;52163;52.212;-1.002;2023-04-04T10:15:56;101729.98;;;7.67;67.14
62952;BME280;52163;52.212;-1.002;2023-04-04T10:18:29;101725.68;;;7.71;67.50
62952;BME280;52163;52.212;-1.002;2023-04-04T10:20:57;101728.37;;;7.81;67.19
62952;BME280;52163;52.212;-1.002;2023-04-04T10:23:24;101731.73;;;7.92;66.62
62952;BME280;52163;52.212;-1.002;2023-04-04T10:25:56;101729.36;;;8.01;66.23
62952;BME280;52163;52.212;-1.002;2023-04-04T10:28:25;101725.20;;;8.05;65.11
62952;BME280;52163;52.212;-1.002;2023-04-04T10:36:08;101716.16;;;8.24;65.77
62952;BME280;52163;52.212;-1.002;2023-04-04T10:38:51;101715.75;;;8.31;65.34
62952;BME280;52163;52.212;-1.002;2023-04-04T10:41:20;101710.89;;;8.34;64.64
62952;BME280;52163;52.212;-1.002;2023-04-04T10:43:46;101710.77;;;8.39;65.46
62952;BME280;52163;52.212;-1.002;2023-04-04T10:46:17;101712.89;;;8.45;65.79
62952;BME280;52163;52.212;-1.002;2023-04-04T10:48:46;101711.89;;;8.49;65.17
62952;BME280;52163;52.212;-1.002;2023-04-04T10:51:13;101711.48;;;8.51;65.46
62952;BME280;52163;52.212;-1.002;2023-04-04T10:53:40;101713.74;;;8.51;64.54
62952;BME280;52163;52.212;-1.002;2023-04-04T10:56:06;101706.31;;;8.53;64.38
62952;BME280;52163;52.212;-1.002;2023-04-04T10:58:38;101708.45;;;8.52;63.69
62952;BME280;52163;52.212;-1.002;2023-04-04T11:01:05;101712.81;;;8.53;64.40
62952;BME280;52163;52.212;-1.002;2023-04-04T11:04:09;101711.45;;;8.52;65.55
62952;BME280;52163;52.212;-1.002;2023-04-04T11:06:22;101707.92;;;8.52;66.67
62952;BME280;52163;52.212;-1.002;2023-04-04T11:08:53;101704.14;;;8.54;67.91
62952;BME280;52163;52.212;-1.002;2023-04-04T11:11:20;101707.16;;;8.59;68.48
62952;BME280;52163;52.212;-1.002;2023-04-04T11:13:58;101711.48;;;8.61;68.07
62952;BME280;52163;52.212;-1.002;2023-04-04T11:16:25;101708.36;;;8.65;68.53
62952;BME280;52163;52.212;-1.002;2023-04-04T11:18:51;101702.97;;;8.69;69.03
62952;BME280;52163;52.212;-1.002;2023-04-04T11:21:18;101693.48;;;8.73;69.49
62952;BME280;52163;52.212;-1.002;2023-04-04T11:26:16;101688.91;;;8.83;68.78
62952;BME280;52163;52.212;-1.002;2023-04-04T11:28:43;101685.80;;;8.86;66.88
62952;BME280;52163;52.212;-1.002;2023-04-04T11:33:56;101683.41;;;9.00;67.27
62952;BME280;52163;52.212;-1.002;2023-04-04T11:39:12;101681.88;;;9.08;64.00
62952;BME280;52163;52.212;-1.002;2023-04-04T11:44:28;101684.58;;;9.17;63.75
62952;BME280;52163;52.212;-1.002;2023-04-04T11:49:41;101679.66;;;9.36;64.30
62952;BME280;52163;52.212;-1.002;2023-04-04T11:52:14;101677.80;;;9.44;64.36
62952;BME280;52163;52.212;-1.002;2023-04-04T11:54:42;101676.94;;;9.48;63.50
62952;BME280;52163;52.212;-1.002;2023-04-04T11:57:11;101673.44;;;9.47;61.81
62952;BME280;52163;52.212;-1.002;2023-04-04T11:59:42;101667.29;;;9.46;61.55
62952;BME280;52163;52.212;-1.002;2023-04-04T12:02:09;101664.88;;;9.54;63.95
62952;BME280;52163;52.212;-1.002;2023-04-04T12:04:40;101666.11;;;9.64;65.25
62952;BME280;52163;52.212;-1.002;2023-04-04T12:07:09;101663.30;;;9.72;63.72
62952;BME280;52163;52.212;-1.002;2023-04-04T12:09:35;101659.58;;;9.78;63.36
62952;BME280;52163;52.212;-1.002;2023-04-04T12:12:01;101658.91;;;9.86;63.86
62952;BME280;52163;52.212;-1.002;2023-04-04T12:14:27;101658.34;;;9.92;63.59
62952;BME280;52163;52.212;-1.002;2023-04-04T12:16:54;101654.41;;;9.97;62.89
62952;BME280;52163;52.212;-1.002;2023-04-04T12:19:25;101653.37;;;10.01;60.85
62952;BME280;52163;52.212;-1.002;2023-04-04T12:21:52;101651.23;;;10.07;61.92
62952;BME280;52163;52.212;-1.002;2023-04-04T12:24:18;101649.16;;;10.09;61.68
62952;BME280;52163;52.212;-1.002;2023-04-04T12:26:49;101644.55;;;10.10;60.85
62952;BME280;52163;52.212;-1.002;2023-04-04T12:29:16;101645.13;;;10.09;60.16
62952;BME280;52163;52.212;-1.002;2023-04-04T12:31:44;101639.34;;;10.08;59.89
62952;BME280;52163;52.212;-1.002;2023-04-04T12:34:20;101635.27;;;10.12;59.77
62952;BME280;52163;52.212;-1.002;2023-04-04T12:36:47;101629.98;;;10.17;59.98
62952;BME280;52163;52.212;-1.002;2023-04-04T12:39:14;101627.30;;;10.22;59.34
62952;BME280;52163;52.212;-1.002;2023-04-04T12:42:06;101621.55;;;10.33;60.14
62952;BME280;52163;52.212;-1.002;2023-04-04T12:44:38;101621.48;;;10.44;61.13
62952;BME280;52163;52.212;-1.002;2023-04-04T12:47:08;101621.61;;;10.53;60.11
62952;BME280;52163;52.212;-1.002;2023-04-04T12:49:39;101617.23;;;10.61;57.91
62952;BME280;52163;52.212;-1.002;2023-04-04T12:52:15;101615.52;;;10.68;59.21
62952;BME280;52163;52.212;-1.002;2023-04-04T12:54:41;101610.98;;;10.74;57.62
62952;BME280;52163;52.212;-1.002;2023-04-04T12:57:07;101606.19;;;10.75;56.07
62952;BME280;52163;52.212;-1.002;2023-04-04T12:59:34;101599.02;;;10.78;57.22
62952;BME280;52163;52.212;-1.002;2023-04-04T13:02:06;101597.66;;;10.80;57.46
62952;BME280;52163;52.212;-1.002;2023-04-04T13:04:33;101598.39;;;10.84;58.34
62952;BME280;52163;52.212;-1.002;2023-04-04T13:06:59;101594.66;;;10.88;58.65
62952;BME280;52163;52.212;-1.002;2023-04-04T13:09:26;101594.52;;;10.92;58.85
62952;BME280;52163;52.212;-1.002;2023-04-04T13:12:02;101591.80;;;10.93;58.74